sensor_id;sensor_type;location;lat;lon;timestamp;temperature;humidity
7588;DHT22;3835;48.850;8.938;2023-02-03T00:00:24;5.40;99.90
7588;DHT22;3835;48.850;8.938;2023-02-03T00:02:53;5.40;99.90
7588;DHT22;3835;48.850;8.938;2023-02-03T00:05:20;5.50;99.90
7588;DHT22;3835;48.850;8.938;2023-02-03T00:07:49;5.50;99.90
7588;DHT22;3835;48.850;8.938;2023-02-03T00:10:15;5.50;99.90
7588;DHT22;3835;48.850;8.938;2023-02-03T00:12:46;5.50;99.90
7588;DHT22;3835;48.850;8.938;2023-02-03T00:15:12;5.50;99.90
7588;DHT22;3835;48.850;8.938;2023-02-03T00:17:39;5.50;99.90
7588;DHT22;3835;48.850;8.938;2023-02-03T00:20:07;5.50;99.90
7588;DHT22;3835;48.850;8.938;2023-02-03T00:22:34;5.50;99.90
7588;DHT22;3835;48.850;8.938;2023-02-03T00:25:02;5.50;99.90
7588;DHT22;3835;48.850;8.938;2023-02-03T00:27:29;5.50;99.90
7588;DHT22;3835;48.850;8.938;2023-02-03T00:29:56;5.50;99.90
7588;DHT22;3835;48.850;8.938;2023-02-03T00:32:23;5.50;99.90
7588;DHT22;3835;48.850;8.938;2023-02-03T00:34:49;5.50;99.90
7588;DHT22;3835;48.850;8.938;2023-02-03T00:37:16;5.50;99.90
7588;DHT22;3835;48.850;8.938;2023-02-03T00:39:43;5.50;99.90
7588;DHT22;3835;48.850;8.938;2023-02-03T00:42:11;5.50;99.90
7588;DHT22;3835;48.850;8.938;2023-02-03T00:44:38;5.50;99.90
7588;DHT22;3835;48.850;8.938;2023-02-03T00:47:05;5.50;99.90
7588;DHT22;3835;48.850;8.938;2023-02-03T00:49:31;5.50;99.90
7588;DHT22;3835;48.850;8.938;2023-02-03T00:51:58;5.50;99.90
7588;DHT22;3835;48.850;8.938;2023-02-03T00:54:25;5.50;99.90
7588;DHT22;3835;48.850;8.938;2023-02-03T00:56:52;5.50;99.90
7588;DHT22;3835;48.850;8.938;2023-02-03T00:59:20;5.50;99.90
7588;DHT22;3835;48.850;8.938;2023-02-03T01:01:47;5.50;99.90
7588;DHT22;3835;48.850;8.938;2023-02-03T01:04:14;5.50;99.90
7588;DHT22;3835;48.850;8.938;2023-02-03T01:06:41;5.50;99.90
7588;DHT22;3835;48.850;8.938;2023-02-03T01:09:08;5.50;99.90
7588;DHT22;3835;48.850;8.938;2023-02-03T01:11:35;5.50;99.90
7588;DHT22;3835;48.850;8.938;2023-02-03T01:14:01;5.50;99.90
7588;DHT22;3835;48.850;8.938;2023-02-03T01:16:30;5.50;99.90
7588;DHT22;3835;48.850;8.938;2023-02-03T01:19:00;5.50;99.90
7588;DHT22;3835;48.850;8.938;2023-02-03T01:21:27;5.40;99.90
7588;DHT22;3835;48.850;8.938;2023-02-03T01:23:54;5.40;99.90
7588;DHT22;3835;48.850;8.938;2023-02-03T01:26:22;5.40;99.90
7588;DHT22;3835;48.850;8.938;2023-02-03T01:28:50;5.50;99.90
7588;DHT22;3835;48.850;8.938;2023-02-03T01:31:18;5.40;99.90
7588;DHT22;3835;48.850;8.938;2023-02-03T01:33:47;5.40;99.90
7588;DHT22;3835;48.850;8.938;2023-02-03T01:36:15;5.40;99.90
7588;DHT22;3835;48.850;8.938;2023-02-03T01:38:42;5.40;99.90
7588;DHT22;3835;48.850;8.938;2023-02-03T01:41:11;5.40;99.90
7588;DHT22;3835;48.850;8.938;2023-02-03T01:43:40;5.40;99.90
7588;DHT22;3835;48.850;8.938;2023-02-03T01:46:24;5.40;99.90
7588;DHT22;3835;48.850;8.938;2023-02-03T01:48:55;5.40;99.90
7588;DHT22;3835;48.850;8.938;2023-02-03T01:51:25;5.40;99.90
7588;DHT22;3835;48.850;8.938;2023-02-03T01:53:52;5.40;99.90
7588;DHT22;3835;48.850;8.938;2023-02-03T01:56:20;5.50;99.90
7588;DHT22;3835;48.850;8.938;2023-02-03T01:58:49;5.50;99.90
7588;DHT22;3835;48.850;8.938;2023-02-03T02:01:16;5.50;99.90
7588;DHT22;3835;48.850;8.938;2023-02-03T02:03:45;5.50;99.90
7588;DHT22;3835;48.850;8.938;2023-02-03T02:06:14;5.50;99.90
7588;DHT22;3835;48.850;8.938;2023-02-03T02:08:45;5.50;99.90
7588;DHT22;3835;48.850;8.938;2023-02-03T02:11:13;5.50;99.90
7588;DHT22;3835;48.850;8.938;2023-02-03T02:13:41;5.50;99.90
7588;DHT22;3835;48.850;8.938;2023-02-03T02:16:11;5.50;99.90
7588;DHT22;3835;48.850;8.938;2023-02-03T02:18:57;5.50;99.90
7588;DHT22;3835;48.850;8.938;2023-02-03T02:21:53;5.40;99.90
7588;DHT22;3835;48.850;8.938;2023-02-03T02:24:57;5.40;99.90
7588;DHT22;3835;48.850;8.938;2023-02-03T02:27:53;5.40;99.90
7588;DHT22;3835;48.850;8.938;2023-02-03T02:30:38;5.40;99.90
7588;DHT22;3835;48.850;8.938;2023-02-03T02:33:12;5.40;99.90
7588;DHT22;3835;48.850;8.938;2023-02-03T02:35:48;5.40;99.90
7588;DHT22;3835;48.850;8.938;2023-02-03T02:38:25;5.50;99.90
7588;DHT22;3835;48.850;8.938;2023-02-03T02:41:01;5.50;99.90
7588;DHT22;3835;48.850;8.938;2023-02-03T02:43:35;5.40;99.90
7588;DHT22;3835;48.850;8.938;2023-02-03T02:46:09;5.40;99.90
7588;DHT22;3835;48.850;8.938;2023-02-03T02:48:42;5.40;99.90
7588;DHT22;3835;48.850;8.938;2023-02-03T02:51:11;5.40;99.90
7588;DHT22;3835;48.850;8.938;2023-02-03T02:53:43;5.40;99.90
7588;DHT22;3835;48.850;8.938;2023-02-03T02:56:12;5.40;99.90
7588;DHT22;3835;48.850;8.938;2023-02-03T02:58:43;5.40;99.90
7588;DHT22;3835;48.850;8.938;2023-02-03T03:01:12;5.40;99.90
7588;DHT22;3835;48.850;8.938;2023-02-03T03:03:41;5.60;99.90
7588;DHT22;3835;48.850;8.938;2023-02-03T03:06:13;5.50;99.90
7588;DHT22;3835;48.850;8.938;2023-02-03T03:08:43;5.50;99.90
7588;DHT22;3835;48.850;8.938;2023-02-03T03:11:11;5.40;99.90
7588;DHT22;3835;48.850;8.938;2023-02-03T03:13:42;5.40;99.90
7588;DHT22;3835;48.850;8.938;2023-02-03T03:16:12;5.30;99.90
7588;DHT22;3835;48.850;8.938;2023-02-03T03:18:43;5.30;99.90
7588;DHT22;3835;48.850;8.938;2023-02-03T03:21:16;5.30;99.90
7588;DHT22;3835;48.850;8.938;2023-02-03T03:23:46;5.30;99.90
7588;DHT22;3835;48.850;8.938;2023-02-03T03:26:21;5.40;99.90
7588;DHT22;3835;48.850;8.938;2023-02-03T03:28:52;5.40;99.90
7588;DHT22;3835;48.850;8.938;2023-02-03T03:31:20;5.30;99.90
7588;DHT22;3835;48.850;8.938;2023-02-03T03:33:48;5.40;99.90
7588;DHT22;3835;48.850;8.938;2023-02-03T03:36:23;5.40;99.90
7588;DHT22;3835;48.850;8.938;2023-02-03T03:38:55;5.40;99.90
7588;DHT22;3835;48.850;8.938;2023-02-03T03:41:30;5.50;99.90
7588;DHT22;3835;48.850;8.938;2023-02-03T03:44:03;5.50;99.90
7588;DHT22;3835;48.850;8.938;2023-02-03T03:46:35;5.50;99.90
7588;DHT22;3835;48.850;8.938;2023-02-03T03:49:08;5.50;99.90
7588;DHT22;3835;48.850;8.938;2023-02-03T03:51:39;5.60;99.90
7588;DHT22;3835;48.850;8.938;2023-02-03T03:54:10;5.60;99.90
7588;DHT22;3835;48.850;8.938;2023-02-03T03:56:43;5.60;99.90
7588;DHT22;3835;48.850;8.938;2023-02-03T03:59:12;5.60;99.90
7588;DHT22;3835;48.850;8.938;2023-02-03T04:01:40;5.60;99.90
7588;DHT22;3835;48.850;8.938;2023-02-03T04:04:09;5.70;99.90
7588;DHT22;3835;48.850;8.938;2023-02-03T04:06:37;5.60;99.90
7588;DHT22;3835;48.850;8.938;2023-02-03T04:09:04;5.60;99.90
7588;DHT22;3835;48.850;8.938;2023-02-03T04:11:31;5.60;99.90
7588;DHT22;3835;48.850;8.938;2023-02-03T04:14:15;5.60;99.90
7588;DHT22;3835;48.850;8.938;2023-02-03T04:16:42;5.60;99.90
7588;DHT22;3835;48.850;8.938;2023-02-03T04:19:10;5.50;99.90
7588;DHT22;3835;48.850;8.938;2023-02-03T04:21:37;5.50;99.90
7588;DHT22;3835;48.850;8.938;2023-02-03T04:24:04;5.40;99.90
7588;DHT22;3835;48.850;8.938;2023-02-03T04:26:31;5.40;99.90
7588;DHT22;3835;48.850;8.938;2023-02-03T04:28:58;5.40;99.90
7588;DHT22;3835;48.850;8.938;2023-02-03T04:31:24;5.30;99.90
7588;DHT22;3835;48.850;8.938;2023-02-03T04:33:51;5.30;99.90
7588;DHT22;3835;48.850;8.938;2023-02-03T04:36:19;5.30;99.90
7588;DHT22;3835;48.850;8.938;2023-02-03T04:38:47;5.30;99.90
7588;DHT22;3835;48.850;8.938;2023-02-03T04:41:14;5.30;99.90
7588;DHT22;3835;48.850;8.938;2023-02-03T04:43:41;5.20;99.90
7588;DHT22;3835;48.850;8.938;2023-02-03T04:46:08;5.30;99.90
7588;DHT22;3835;48.850;8.938;2023-02-03T04:48:35;5.30;99.90
7588;DHT22;3835;48.850;8.938;2023-02-03T04:51:03;5.30;99.90
7588;DHT22;3835;48.850;8.938;2023-02-03T04:53:31;5.30;99.90
7588;DHT22;3835;48.850;8.938;2023-02-03T04:55:58;5.40;99.90
7588;DHT22;3835;48.850;8.938;2023-02-03T04:58:25;5.30;99.90
7588;DHT22;3835;48.850;8.938;2023-02-03T05:00:52;5.30;99.90
7588;DHT22;3835;48.850;8.938;2023-02-03T05:03:20;5.30;99.90
7588;DHT22;3835;48.850;8.938;2023-02-03T05:05:48;5.30;99.90
7588;DHT22;3835;48.850;8.938;2023-02-03T05:08:15;5.30;99.90
7588;DHT22;3835;48.850;8.938;2023-02-03T05:10:43;5.20;99.90
7588;DHT22;3835;48.850;8.938;2023-02-03T05:13:09;5.20;99.90
7588;DHT22;3835;48.850;8.938;2023-02-03T05:15:36;5.20;99.90
7588;DHT22;3835;48.850;8.938;2023-02-03T05:18:03;5.30;99.90
7588;DHT22;3835;48.850;8.938;2023-02-03T05:20:30;5.30;99.90
7588;DHT22;3835;48.850;8.938;2023-02-03T05:22:57;5.30;99.90
7588;DHT22;3835;48.850;8.938;2023-02-03T05:25:25;5.30;99.90
7588;DHT22;3835;48.850;8.938;2023-02-03T05:27:54;5.30;99.90
7588;DHT22;3835;48.850;8.938;2023-02-03T05:30:20;5.30;99.90
7588;DHT22;3835;48.850;8.938;2023-02-03T05:32:48;5.30;99.90
7588;DHT22;3835;48.850;8.938;2023-02-03T05:35:14;5.30;99.90
7588;DHT22;3835;48.850;8.938;2023-02-03T05:37:43;5.30;99.90
7588;DHT22;3835;48.850;8.938;2023-02-03T05:40:10;5.30;99.90
7588;DHT22;3835;48.850;8.938;2023-02-03T05:42:56;5.30;99.90
7588;DHT22;3835;48.850;8.938;2023-02-03T05:45:23;5.30;99.90
7588;DHT22;3835;48.850;8.938;2023-02-03T05:47:50;5.30;99.90
7588;DHT22;3835;48.850;8.938;2023-02-03T05:50:16;5.40;99.90
7588;DHT22;3835;48.850;8.938;2023-02-03T05:52:43;5.40;99.90
7588;DHT22;3835;48.850;8.938;2023-02-03T05:55:10;5.40;99.90
7588;DHT22;3835;48.850;8.938;2023-02-03T05:57:37;5.40;99.90
7588;DHT22;3835;48.850;8.938;2023-02-03T06:00:06;5.40;99.90
7588;DHT22;3835;48.850;8.938;2023-02-03T06:02:33;5.40;99.90
7588;DHT22;3835;48.850;8.938;2023-02-03T06:05:00;5.40;99.90
7588;DHT22;3835;48.850;8.938;2023-02-03T06:07:26;5.40;99.90
7588;DHT22;3835;48.850;8.938;2023-02-03T06:09:53;5.40;99.90
7588;DHT22;3835;48.850;8.938;2023-02-03T06:12:20;5.40;99.90
7588;DHT22;3835;48.850;8.938;2023-02-03T06:14:47;5.40;99.90
7588;DHT22;3835;48.850;8.938;2023-02-03T06:17:15;5.40;99.90
7588;DHT22;3835;48.850;8.938;2023-02-03T06:19:41;5.40;99.90
7588;DHT22;3835;48.850;8.938;2023-02-03T06:22:08;5.40;99.90
7588;DHT22;3835;48.850;8.938;2023-02-03T06:24:35;5.40;99.90
7588;DHT22;3835;48.850;8.938;2023-02-03T06:27:02;5.40;99.90
7588;DHT22;3835;48.850;8.938;2023-02-03T06:29:29;5.40;99.90
7588;DHT22;3835;48.850;8.938;2023-02-03T06:31:55;5.40;99.90
7588;DHT22;3835;48.850;8.938;2023-02-03T06:34:23;5.50;99.90
7588;DHT22;3835;48.850;8.938;2023-02-03T06:36:50;5.50;99.90
7588;DHT22;3835;48.850;8.938;2023-02-03T06:39:17;5.50;99.90
7588;DHT22;3835;48.850;8.938;2023-02-03T06:41:44;5.40;99.90
7588;DHT22;3835;48.850;8.938;2023-02-03T06:44:10;5.40;99.90
7588;DHT22;3835;48.850;8.938;2023-02-03T06:46:37;5.40;99.90
7588;DHT22;3835;48.850;8.938;2023-02-03T06:49:04;5.40;99.90
7588;DHT22;3835;48.850;8.938;2023-02-03T06:51:32;5.30;99.90
7588;DHT22;3835;48.850;8.938;2023-02-03T06:53:59;5.30;99.90
7588;DHT22;3835;48.850;8.938;2023-02-03T06:56:26;5.30;99.90
7588;DHT22;3835;48.850;8.938;2023-02-03T06:58:52;5.30;99.90
7588;DHT22;3835;48.850;8.938;2023-02-03T07:01:19;5.30;99.90
7588;DHT22;3835;48.850;8.938;2023-02-03T07:03:46;5.40;99.90
7588;DHT22;3835;48.850;8.938;2023-02-03T07:06:13;5.30;99.90
7588;DHT22;3835;48.850;8.938;2023-02-03T07:08:41;5.30;99.90
7588;DHT22;3835;48.850;8.938;2023-02-03T07:11:09;5.30;99.90
7588;DHT22;3835;48.850;8.938;2023-02-03T07:13:35;5.30;99.90
7588;DHT22;3835;48.850;8.938;2023-02-03T07:16:03;5.40;99.90
7588;DHT22;3835;48.850;8.938;2023-02-03T07:18:29;5.30;99.90
7588;DHT22;3835;48.850;8.938;2023-02-03T07:20:56;5.30;99.90
7588;DHT22;3835;48.850;8.938;2023-02-03T07:23:23;5.30;99.90
7588;DHT22;3835;48.850;8.938;2023-02-03T07:25:51;5.40;99.90
7588;DHT22;3835;48.850;8.938;2023-02-03T07:28:18;5.40;99.90
7588;DHT22;3835;48.850;8.938;2023-02-03T07:30:47;5.40;99.90
7588;DHT22;3835;48.850;8.938;2023-02-03T07:33:13;5.50;99.90
7588;DHT22;3835;48.850;8.938;2023-02-03T07:35:40;5.50;99.90
7588;DHT22;3835;48.850;8.938;2023-02-03T07:38:07;5.50;99.90
7588;DHT22;3835;48.850;8.938;2023-02-03T07:40:34;5.60;99.90
7588;DHT22;3835;48.850;8.938;2023-02-03T07:43:02;5.70;99.90
7588;DHT22;3835;48.850;8.938;2023-02-03T07:45:29;5.70;99.90
7588;DHT22;3835;48.850;8.938;2023-02-03T07:47:55;5.60;99.90
7588;DHT22;3835;48.850;8.938;2023-02-03T07:50:22;5.60;99.90
7588;DHT22;3835;48.850;8.938;2023-02-03T07:52:49;5.70;99.90
7588;DHT22;3835;48.850;8.938;2023-02-03T07:55:16;5.70;99.90
7588;DHT22;3835;48.850;8.938;2023-02-03T07:57:43;5.70;99.90
7588;DHT22;3835;48.850;8.938;2023-02-03T08:00:14;5.70;99.90
7588;DHT22;3835;48.850;8.938;2023-02-03T08:02:42;5.80;99.90
7588;DHT22;3835;48.850;8.938;2023-02-03T08:05:10;5.80;99.90
7588;DHT22;3835;48.850;8.938;2023-02-03T08:07:37;5.80;99.90
7588;DHT22;3835;48.850;8.938;2023-02-03T08:10:05;5.80;99.90
7588;DHT22;3835;48.850;8.938;2023-02-03T08:12:32;5.80;99.90
7588;DHT22;3835;48.850;8.938;2023-02-03T08:14:59;5.80;99.90
7588;DHT22;3835;48.850;8.938;2023-02-03T08:17:27;5.90;99.90
7588;DHT22;3835;48.850;8.938;2023-02-03T08:19:54;5.80;99.90
7588;DHT22;3835;48.850;8.938;2023-02-03T08:22:21;5.90;99.90
7588;DHT22;3835;48.850;8.938;2023-02-03T08:24:48;5.90;99.90
7588;DHT22;3835;48.850;8.938;2023-02-03T08:27:17;5.90;99.90
7588;DHT22;3835;48.850;8.938;2023-02-03T08:29:44;5.90;99.90
7588;DHT22;3835;48.850;8.938;2023-02-03T08:32:13;6.00;99.90
7588;DHT22;3835;48.850;8.938;2023-02-03T08:34:42;6.00;99.90
7588;DHT22;3835;48.850;8.938;2023-02-03T08:37:11;6.00;99.90
7588;DHT22;3835;48.850;8.938;2023-02-03T08:39:38;6.00;99.90
7588;DHT22;3835;48.850;8.938;2023-02-03T08:42:05;6.00;99.90
7588;DHT22;3835;48.850;8.938;2023-02-03T08:44:32;6.10;99.90
7588;DHT22;3835;48.850;8.938;2023-02-03T08:47:00;6.20;99.90
7588;DHT22;3835;48.850;8.938;2023-02-03T08:49:28;6.30;99.90
7588;DHT22;3835;48.850;8.938;2023-02-03T08:51:57;6.30;99.90
7588;DHT22;3835;48.850;8.938;2023-02-03T08:54:25;6.20;99.90
7588;DHT22;3835;48.850;8.938;2023-02-03T08:56:52;6.10;99.90
7588;DHT22;3835;48.850;8.938;2023-02-03T08:59:19;6.00;99.90
7588;DHT22;3835;48.850;8.938;2023-02-03T09:01:45;6.00;99.90
7588;DHT22;3835;48.850;8.938;2023-02-03T09:04:13;6.00;99.90
7588;DHT22;3835;48.850;8.938;2023-02-03T09:06:43;6.30;99.90
7588;DHT22;3835;48.850;8.938;2023-02-03T09:09:11;6.20;99.90
7588;DHT22;3835;48.850;8.938;2023-02-03T09:11:39;6.30;99.90
7588;DHT22;3835;48.850;8.938;2023-02-03T09:14:07;6.40;99.90
7588;DHT22;3835;48.850;8.938;2023-02-03T09:16:34;6.40;99.90
7588;DHT22;3835;48.850;8.938;2023-02-03T09:19:01;6.40;99.90
7588;DHT22;3835;48.850;8.938;2023-02-03T09:21:32;6.50;99.90
7588;DHT22;3835;48.850;8.938;2023-02-03T09:24:00;6.70;99.90
7588;DHT22;3835;48.850;8.938;2023-02-03T09:26:30;6.70;99.90
7588;DHT22;3835;48.850;8.938;2023-02-03T09:28:58;6.80;99.90
7588;DHT22;3835;48.850;8.938;2023-02-03T09:31:26;7.00;99.90
7588;DHT22;3835;48.850;8.938;2023-02-03T09:33:54;7.10;99.90
7588;DHT22;3835;48.850;8.938;2023-02-03T09:36:21;7.00;99.90
7588;DHT22;3835;48.850;8.938;2023-02-03T09:38:49;6.80;99.90
7588;DHT22;3835;48.850;8.938;2023-02-03T09:41:23;6.80;99.90
7588;DHT22;3835;48.850;8.938;2023-02-03T09:43:58;7.00;99.90
7588;DHT22;3835;48.850;8.938;2023-02-03T09:46:31;7.10;99.90
7588;DHT22;3835;48.850;8.938;2023-02-03T09:49:06;7.00;99.90
7588;DHT22;3835;48.850;8.938;2023-02-03T09:51:42;7.20;99.90
7588;DHT22;3835;48.850;8.938;2023-02-03T09:54:16;7.10;99.90
7588;DHT22;3835;48.850;8.938;2023-02-03T09:56:47;7.20;99.90
7588;DHT22;3835;48.850;8.938;2023-02-03T09:59:19;7.40;99.90
7588;DHT22;3835;48.850;8.938;2023-02-03T10:01:54;7.60;99.90
7588;DHT22;3835;48.850;8.938;2023-02-03T10:04:30;7.60;99.90
7588;DHT22;3835;48.850;8.938;2023-02-03T10:07:04;7.70;99.90
7588;DHT22;3835;48.850;8.938;2023-02-03T10:09:46;7.70;99.90
7588;DHT22;3835;48.850;8.938;2023-02-03T10:12:54;7.90;99.90
7588;DHT22;3835;48.850;8.938;2023-02-03T10:18:32;7.70;99.90
7588;DHT22;3835;48.850;8.938;2023-02-03T10:21:09;7.60;99.90
7588;DHT22;3835;48.850;8.938;2023-02-03T10:23:40;7.60;99.90
7588;DHT22;3835;48.850;8.938;2023-02-03T10:26:13;7.70;99.90
7588;DHT22;3835;48.850;8.938;2023-02-03T10:28:50;7.60;99.90
7588;DHT22;3835;48.850;8.938;2023-02-03T10:31:24;7.50;99.90
7588;DHT22;3835;48.850;8.938;2023-02-03T10:33:59;7.60;99.90
7588;DHT22;3835;48.850;8.938;2023-02-03T10:36:36;7.50;99.90
7588;DHT22;3835;48.850;8.938;2023-02-03T10:39:16;7.50;99.90
7588;DHT22;3835;48.850;8.938;2023-02-03T10:41:46;7.50;99.90
7588;DHT22;3835;48.850;8.938;2023-02-03T10:44:14;7.60;99.90
7588;DHT22;3835;48.850;8.938;2023-02-03T10:46:45;7.50;99.90
7588;DHT22;3835;48.850;8.938;2023-02-03T10:49:13;7.70;99.90
7588;DHT22;3835;48.850;8.938;2023-02-03T10:51:47;7.70;99.90
7588;DHT22;3835;48.850;8.938;2023-02-03T10:54:27;7.70;99.90
7588;DHT22;3835;48.850;8.938;2023-02-03T10:57:01;7.70;99.90
7588;DHT22;3835;48.850;8.938;2023-02-03T10:59:32;7.90;99.90
7588;DHT22;3835;48.850;8.938;2023-02-03T11:02:06;8.00;99.90
7588;DHT22;3835;48.850;8.938;2023-02-03T11:04:35;8.00;99.90
7588;DHT22;3835;48.850;8.938;2023-02-03T11:07:06;7.60;99.90
7588;DHT22;3835;48.850;8.938;2023-02-03T11:09:36;7.40;99.90
7588;DHT22;3835;48.850;8.938;2023-02-03T11:12:11;7.70;99.90
7588;DHT22;3835;48.850;8.938;2023-02-03T11:14:41;7.70;99.90
7588;DHT22;3835;48.850;8.938;2023-02-03T11:17:16;7.50;99.90
7588;DHT22;3835;48.850;8.938;2023-02-03T11:19:45;7.40;99.90
7588;DHT22;3835;48.850;8.938;2023-02-03T11:22:26;7.50;99.90
7588;DHT22;3835;48.850;8.938;2023-02-03T11:24:55;7.40;99.90
7588;DHT22;3835;48.850;8.938;2023-02-03T11:27:24;7.40;99.90
7588;DHT22;3835;48.850;8.938;2023-02-03T11:30:10;7.50;99.90
7588;DHT22;3835;48.850;8.938;2023-02-03T11:32:42;7.50;99.90
7588;DHT22;3835;48.850;8.938;2023-02-03T11:35:15;7.50;99.90
7588;DHT22;3835;48.850;8.938;2023-02-03T11:37:46;7.90;99.90
7588;DHT22;3835;48.850;8.938;2023-02-03T11:40:27;7.80;99.90
7588;DHT22;3835;48.850;8.938;2023-02-03T11:43:03;7.50;99.90
7588;DHT22;3835;48.850;8.938;2023-02-03T11:45:36;7.40;99.90
7588;DHT22;3835;48.850;8.938;2023-02-03T11:48:15;7.60;99.90
7588;DHT22;3835;48.850;8.938;2023-02-03T11:50:46;7.80;99.90
7588;DHT22;3835;48.850;8.938;2023-02-03T11:53:36;7.70;99.90
7588;DHT22;3835;48.850;8.938;2023-02-03T11:56:19;7.60;99.90
7588;DHT22;3835;48.850;8.938;2023-02-03T12:08:08;7.30;99.90
7588;DHT22;3835;48.850;8.938;2023-02-03T12:10:50;7.50;99.90
7588;DHT22;3835;48.850;8.938;2023-02-03T12:13:41;7.60;99.90
7588;DHT22;3835;48.850;8.938;2023-02-03T12:16:30;7.40;99.90
7588;DHT22;3835;48.850;8.938;2023-02-03T12:19:08;7.50;99.90
7588;DHT22;3835;48.850;8.938;2023-02-03T12:21:43;7.50;99.90
7588;DHT22;3835;48.850;8.938;2023-02-03T12:24:18;7.30;99.90
7588;DHT22;3835;48.850;8.938;2023-02-03T12:26:55;7.30;99.90
7588;DHT22;3835;48.850;8.938;2023-02-03T12:29:31;7.30;99.90
7588;DHT22;3835;48.850;8.938;2023-02-03T12:32:05;7.30;99.90
7588;DHT22;3835;48.850;8.938;2023-02-03T12:34:37;7.20;99.90
7588;DHT22;3835;48.850;8.938;2023-02-03T12:37:11;7.30;99.90
7588;DHT22;3835;48.850;8.938;2023-02-03T12:39:41;7.30;99.90
7588;DHT22;3835;48.850;8.938;2023-02-03T12:42:15;7.20;99.90
7588;DHT22;3835;48.850;8.938;2023-02-03T12:44:47;7.20;99.90
7588;DHT22;3835;48.850;8.938;2023-02-03T12:47:21;7.10;99.90
7588;DHT22;3835;48.850;8.938;2023-02-03T12:49:53;7.10;99.90
7588;DHT22;3835;48.850;8.938;2023-02-03T12:52:27;7.20;99.90
7588;DHT22;3835;48.850;8.938;2023-02-03T12:55:12;7.30;99.90
7588;DHT22;3835;48.850;8.938;2023-02-03T12:57:44;7.30;99.90
7588;DHT22;3835;48.850;8.938;2023-02-03T13:00:19;7.20;99.90
7588;DHT22;3835;48.850;8.938;2023-02-03T13:03:12;7.20;99.90
7588;DHT22;3835;48.850;8.938;2023-02-03T13:05:42;7.20;99.90
7588;DHT22;3835;48.850;8.938;2023-02-03T13:08:19;7.30;99.90
7588;DHT22;3835;48.850;8.938;2023-02-03T13:10:49;7.40;99.90
7588;DHT22;3835;48.850;8.938;2023-02-03T13:13:24;7.20;99.90
7588;DHT22;3835;48.850;8.938;2023-02-03T13:15:55;7.20;99.90
7588;DHT22;3835;48.850;8.938;2023-02-03T13:18:25;7.40;99.90
7588;DHT22;3835;48.850;8.938;2023-02-03T13:20:54;7.50;99.90
7588;DHT22;3835;48.850;8.938;2023-02-03T13:23:23;7.40;99.90
7588;DHT22;3835;48.850;8.938;2023-02-03T13:26:05;7.20;99.90
7588;DHT22;3835;48.850;8.938;2023-02-03T13:28:48;7.10;99.90
7588;DHT22;3835;48.850;8.938;2023-02-03T13:31:23;7.10;99.90
7588;DHT22;3835;48.850;8.938;2023-02-03T13:34:07;7.10;99.90
7588;DHT22;3835;48.850;8.938;2023-02-03T13:36:50;7.10;99.90
7588;DHT22;3835;48.850;8.938;2023-02-03T13:39:35;7.00;99.90
7588;DHT22;3835;48.850;8.938;2023-02-03T13:42:17;7.10;99.90
7588;DHT22;3835;48.850;8.938;2023-02-03T13:44:49;7.10;99.90
7588;DHT22;3835;48.850;8.938;2023-02-03T13:47:21;7.20;99.90
7588;DHT22;3835;48.850;8.938;2023-02-03T13:49:53;7.10;99.90
7588;DHT22;3835;48.850;8.938;2023-02-03T13:52:24;7.10;99.90
7588;DHT22;3835;48.850;8.938;2023-02-03T13:54:54;7.00;99.90
7588;DHT22;3835;48.850;8.938;2023-02-03T13:57:31;6.90;99.90
7588;DHT22;3835;48.850;8.938;2023-02-03T14:00:00;7.00;99.90
7588;DHT22;3835;48.850;8.938;2023-02-03T14:02:52;7.00;99.90
7588;DHT22;3835;48.850;8.938;2023-02-03T14:05:42;6.90;99.90
7588;DHT22;3835;48.850;8.938;2023-02-03T14:08:40;6.90;99.90
7588;DHT22;3835;48.850;8.938;2023-02-03T14:11:41;6.90;99.90
7588;DHT22;3835;48.850;8.938;2023-02-03T14:14:44;6.80;99.90
7588;DHT22;3835;48.850;8.938;2023-02-03T14:20:41;6.70;99.90
7588;DHT22;3835;48.850;8.938;2023-02-03T14:23:13;6.80;99.90
7588;DHT22;3835;48.850;8.938;2023-02-03T14:25:42;6.80;99.90
7588;DHT22;3835;48.850;8.938;2023-02-03T14:28:13;6.80;99.90
7588;DHT22;3835;48.850;8.938;2023-02-03T14:31:05;6.80;99.90
7588;DHT22;3835;48.850;8.938;2023-02-03T14:33:57;6.80;99.90
7588;DHT22;3835;48.850;8.938;2023-02-03T14:36:35;6.80;99.90
7588;DHT22;3835;48.850;8.938;2023-02-03T14:41:52;6.80;99.90
7588;DHT22;3835;48.850;8.938;2023-02-03T14:44:29;6.80;99.90
7588;DHT22;3835;48.850;8.938;2023-02-03T14:47:07;6.80;99.90
7588;DHT22;3835;48.850;8.938;2023-02-03T14:49:57;6.80;99.90
7588;DHT22;3835;48.850;8.938;2023-02-03T14:52:36;6.80;99.90
7588;DHT22;3835;48.850;8.938;2023-02-03T14:55:29;6.80;99.90
7588;DHT22;3835;48.850;8.938;2023-02-03T14:58:00;6.80;99.90
7588;DHT22;3835;48.850;8.938;2023-02-03T15:00:31;6.80;99.90
7588;DHT22;3835;48.850;8.938;2023-02-03T15:03:17;6.80;99.90
7588;DHT22;3835;48.850;8.938;2023-02-03T15:05:49;6.80;99.90
7588;DHT22;3835;48.850;8.938;2023-02-03T15:08:38;6.80;99.90
7588;DHT22;3835;48.850;8.938;2023-02-03T15:11:31;6.80;99.90
7588;DHT22;3835;48.850;8.938;2023-02-03T15:14:21;6.80;99.90
7588;DHT22;3835;48.850;8.938;2023-02-03T15:16:54;6.80;99.90
7588;DHT22;3835;48.850;8.938;2023-02-03T15:19:23;6.80;99.90
7588;DHT22;3835;48.850;8.938;2023-02-03T15:21:50;6.80;99.90
7588;DHT22;3835;48.850;8.938;2023-02-03T15:24:19;6.80;99.90
7588;DHT22;3835;48.850;8.938;2023-02-03T15:26:49;6.80;99.90
7588;DHT22;3835;48.850;8.938;2023-02-03T15:29:26;6.80;99.90
7588;DHT22;3835;48.850;8.938;2023-02-03T15:32:01;6.70;99.90
7588;DHT22;3835;48.850;8.938;2023-02-03T15:34:32;6.70;99.90
7588;DHT22;3835;48.850;8.938;2023-02-03T15:37:06;6.70;99.90
7588;DHT22;3835;48.850;8.938;2023-02-03T15:39:40;6.70;99.90
7588;DHT22;3835;48.850;8.938;2023-02-03T15:42:16;6.70;99.90
7588;DHT22;3835;48.850;8.938;2023-02-03T15:44:47;6.70;99.90
7588;DHT22;3835;48.850;8.938;2023-02-03T15:47:22;6.70;99.90
7588;DHT22;3835;48.850;8.938;2023-02-03T15:50:01;6.70;99.90
7588;DHT22;3835;48.850;8.938;2023-02-03T15:52:33;6.60;99.90
7588;DHT22;3835;48.850;8.938;2023-02-03T15:55:07;6.70;99.90
7588;DHT22;3835;48.850;8.938;2023-02-03T15:57:38;6.70;99.90
7588;DHT22;3835;48.850;8.938;2023-02-03T16:00:27;6.60;99.90
7588;DHT22;3835;48.850;8.938;2023-02-03T16:02:57;6.60;99.90
7588;DHT22;3835;48.850;8.938;2023-02-03T16:05:26;6.60;99.90
7588;DHT22;3835;48.850;8.938;2023-02-03T16:07:54;6.60;99.90
7588;DHT22;3835;48.850;8.938;2023-02-03T16:10:24;6.50;99.90
7588;DHT22;3835;48.850;8.938;2023-02-03T16:12:53;6.40;99.90
7588;DHT22;3835;48.850;8.938;2023-02-03T16:15:21;6.40;99.90
7588;DHT22;3835;48.850;8.938;2023-02-03T16:17:53;6.30;99.90
7588;DHT22;3835;48.850;8.938;2023-02-03T16:20:26;6.30;99.90
7588;DHT22;3835;48.850;8.938;2023-02-03T16:23:02;6.20;99.90
7588;DHT22;3835;48.850;8.938;2023-02-03T16:25:31;6.20;99.90
7588;DHT22;3835;48.850;8.938;2023-02-03T16:27:59;6.20;99.90
7588;DHT22;3835;48.850;8.938;2023-02-03T16:30:54;6.10;99.90
7588;DHT22;3835;48.850;8.938;2023-02-03T16:33:43;6.10;99.90
7588;DHT22;3835;48.850;8.938;2023-02-03T16:36:29;6.10;99.90
7588;DHT22;3835;48.850;8.938;2023-02-03T16:39:14;6.10;99.90
7588;DHT22;3835;48.850;8.938;2023-02-03T16:41:59;6.00;99.90
7588;DHT22;3835;48.850;8.938;2023-02-03T16:44:44;6.00;99.90
7588;DHT22;3835;48.850;8.938;2023-02-03T16:47:29;6.10;99.90
7588;DHT22;3835;48.850;8.938;2023-02-03T16:50:15;6.10;99.90
7588;DHT22;3835;48.850;8.938;2023-02-03T16:53:01;6.10;99.90
7588;DHT22;3835;48.850;8.938;2023-02-03T16:55:28;6.10;99.90
7588;DHT22;3835;48.850;8.938;2023-02-03T16:57:55;6.10;99.90
7588;DHT22;3835;48.850;8.938;2023-02-03T17:00:22;6.10;99.90
7588;DHT22;3835;48.850;8.938;2023-02-03T17:02:49;6.10;99.90
7588;DHT22;3835;48.850;8.938;2023-02-03T17:05:16;6.10;99.90